Time;durP1;ratioP1;P1;durP2;ratioP2;P2;SDS_P1;SDS_P2;PMS_P1;PMS_P2;Temp;Humidity;BMP_temperature;BMP_pressure;BME280_temperature;BME280_humidity;BME280_pressure;Samples;Min_cycle;Max_cycle;Signal;HPM_P1;HPM_P2
2022/10/01 00:01:01;;;;;;;47.25;37.33;;;;;;;17.19;100.00;99653.88;1662774;86;21587;-72
2022/10/01 00:03:28;;;;;;;44.50;36.88;;;;;;;17.10;100.00;99656.45;1657822;86;21864;-73
2022/10/01 00:06:09;;;;;;;42.10;36.13;;;;;;;17.10;100.00;99652.92;1663315;86;21062;-72
2022/10/01 00:08:36;;;;;;;39.78;35.38;;;;;;;17.15;100.00;99659.10;1663657;86;21039;-71
2022/10/01 00:11:13;;;;;;;41.80;34.70;;;;;;;17.16;100.00;99646.32;1656432;86;21135;-72
2022/10/01 00:13:41;;;;;;;42.98;33.60;;;;;;;17.20;100.00;99649.52;1639917;85;21070;-71
2022/10/01 00:16:11;;;;;;;36.28;32.38;;;;;;;17.23;100.00;99650.28;1627035;87;21321;-71
2022/10/01 00:18:39;;;;;;;38.15;33.18;;;;;;;17.17;100.00;99646.01;1630205;85;21556;-71
2022/10/01 00:21:10;;;;;;;39.95;33.45;;;;;;;17.12;100.00;99640.64;1641195;87;21071;-71
2022/10/01 00:23:37;;;;;;;55.12;35.92;;;;;;;17.20;100.00;99637.83;1639575;87;21119;-70
2022/10/01 00:26:20;;;;;;;46.20;36.00;;;;;;;17.27;100.00;99636.89;1607363;89;21122;-70
2022/10/01 00:28:48;;;;;;;51.00;37.83;;;;;;;17.30;100.00;99632.25;1672428;84;21252;-71
2022/10/01 00:31:14;;;;;;;50.58;39.30;;;;;;;17.42;100.00;99633.95;1671861;85;20997;-72
2022/10/01 00:33:41;;;;;;;49.63;40.00;;;;;;;17.47;100.00;99628.42;1671392;85;21062;-72
2022/10/01 00:36:09;;;;;;;49.00;39.08;;;;;;;17.47;100.00;99626.26;1670248;85;21486;-75
2022/10/01 00:38:36;;;;;;;51.30;37.20;;;;;;;17.48;100.00;99630.59;1679891;84;21051;-72
2022/10/01 00:41:04;;;;;;;47.43;37.38;;;;;;;17.49;100.00;99627.59;1656115;86;21971;-72
2022/10/01 00:43:38;;;;;;;48.00;37.55;;;;;;;17.48;100.00;99631.95;1651142;86;21387;-74
2022/10/01 00:46:11;;;;;;;46.55;35.73;;;;;;;17.48;100.00;99628.69;1665816;85;21096;-70
2022/10/01 00:48:43;;;;;;;48.35;39.40;;;;;;;17.51;100.00;99625.37;1640364;86;21029;-71
2022/10/01 00:51:10;;;;;;;43.50;38.17;;;;;;;17.46;100.00;99629.53;1647596;86;21103;-71
2022/10/01 00:53:37;;;;;;;45.10;36.42;;;;;;;17.39;100.00;99625.03;1646196;86;21291;-72
2022/10/01 00:56:07;;;;;;;40.90;32.73;;;;;;;17.39;100.00;99623.12;1609964;87;21577;-71
2022/10/01 00:58:33;;;;;;;42.10;34.70;;;;;;;17.34;100.00;99627.83;1626670;86;22037;-70
2022/10/01 01:01:00;;;;;;;50.48;36.25;;;;;;;17.24;100.00;99625.27;1656943;86;21084;-73
2022/10/01 01:03:27;;;;;;;40.15;35.00;;;;;;;17.22;100.00;99626.91;1638647;86;21130;-69
2022/10/01 01:05:54;;;;;;;46.95;35.15;;;;;;;17.27;100.00;99627.37;1618755;86;21258;-72
2022/10/01 01:08:20;;;;;;;37.53;31.33;;;;;;;17.29;100.00;99630.08;1655102;85;21589;-73
2022/10/01 01:11:00;;;;;;;34.13;28.60;;;;;;;17.26;100.00;99632.04;1636181;87;21123;-70
2022/10/01 01:13:39;;;;;;;39.15;28.52;;;;;;;17.21;100.00;99629.39;1639501;86;21071;-70
2022/10/01 01:16:14;;;;;;;36.85;30.17;;;;;;;17.16;100.00;99631.38;1634093;87;21079;-70
2022/10/01 01:18:53;;;;;;;33.30;27.93;;;;;;;17.07;100.00;99623.09;1635204;87;21275;-69
2022/10/01 01:21:36;;;;;;;38.15;29.67;;;;;;;16.97;100.00;99629.47;1564200;87;21015;-70
2022/10/01 01:24:45;;;;;;;38.08;33.98;;;;;;;16.91;100.00;99632.54;1610354;89;21127;-70
2022/10/01 01:27:46;;;;;;;37.58;32.03;;;;;;;16.88;100.00;99636.63;1610172;88;21104;-70
2022/10/01 01:30:14;;;;;;;45.45;33.55;;;;;;;16.95;100.00;99624.05;1636008;86;21075;-70
2022/10/01 01:33:02;;;;;;;43.78;35.33;;;;;;;17.14;100.00;99624.05;1640964;86;21320;-69
2022/10/01 01:35:34;;;;;;;50.12;39.40;;;;;;;17.17;100.00;99621.55;1605652;87;21022;-68
2022/10/01 01:38:10;;;;;;;38.65;33.48;;;;;;;17.17;100.00;99615.33;1632236;86;21595;-69
2022/10/01 01:40:37;;;;;;;51.77;38.67;;;;;;;17.15;100.00;99621.05;1636329;87;21119;-68
2022/10/01 01:43:07;;;;;;;43.80;36.53;;;;;;;16.98;100.00;99626.17;1607809;88;21562;-71
2022/10/01 01:45:34;;;;;;;44.08;34.95;;;;;;;16.87;100.00;99621.45;1675522;85;21254;-70
2022/10/01 01:48:01;;;;;;;44.25;34.98;;;;;;;16.69;100.00;99619.50;1680021;84;21016;-69
2022/10/01 01:50:30;;;;;;;47.85;35.85;;;;;;;16.56;100.00;99629.16;1653489;86;21432;-69
2022/10/01 01:52:58;;;;;;;46.45;37.55;;;;;;;16.46;100.00;99621.13;1674139;85;21029;-70
2022/10/01 01:55:27;;;;;;;42.05;36.38;;;;;;;16.38;100.00;99624.49;1671992;85;21055;-70
2022/10/01 01:57:54;;;;;;;47.03;39.67;;;;;;;16.44;100.00;99623.89;1653402;86;21304;-70
2022/10/01 02:00:22;;;;;;;47.48;37.10;;;;;;;16.60;100.00;99629.95;1658343;85;21077;-70
2022/10/01 02:02:50;;;;;;;45.33;34.85;;;;;;;16.68;100.00;99619.27;1670349;85;21048;-70
2022/10/01 02:05:21;;;;;;;47.53;36.77;;;;;;;16.78;100.00;99629.19;1667720;85;21044;-70
2022/10/01 02:08:31;;;;;;;43.65;35.68;;;;;;;16.81;100.00;99626.69;1668150;85;21620;-69
2022/10/01 02:11:38;;;;;;;42.20;35.90;;;;;;;16.76;100.00;99630.83;1641328;87;21147;-69
2022/10/01 02:14:27;;;;;;;42.93;37.55;;;;;;;16.82;100.00;99625.60;1657549;86;21072;-70
2022/10/01 02:17:02;;;;;;;43.00;36.98;;;;;;;16.82;100.00;99621.52;1657865;86;21043;-70
2022/10/01 02:19:55;;;;;;;48.78;37.88;;;;;;;16.78;100.00;99625.93;1656552;85;21011;-72
2022/10/01 02:22:33;;;;;;;41.90;34.38;;;;;;;16.83;100.00;99624.51;1670870;84;21084;-69
2022/10/01 02:25:00;;;;;;;38.73;34.15;;;;;;;16.87;100.00;99624.72;1648910;85;21292;-71
2022/10/01 02:27:43;;;;;;;37.80;27.60;;;;;;;16.88;100.00;99627.70;1671110;85;21520;-71
2022/10/01 02:30:10;;;;;;;37.45;27.90;;;;;;;16.89;100.00;99623.86;1684772;84;20991;-70
2022/10/01 02:32:39;;;;;;;31.27;28.05;;;;;;;16.91;100.00;99626.56;1669601;85;21095;-70
2022/10/01 02:35:10;;;;;;;33.83;29.72;;;;;;;16.94;100.00;99625.96;1670360;85;21073;-70
2022/10/01 02:37:37;;;;;;;36.10;29.60;;;;;;;16.99;100.00;99621.00;1679387;85;21224;-70
2022/10/01 02:40:06;;;;;;;36.83;30.88;;;;;;;16.99;100.00;99618.28;1661327;85;21080;-70
2022/10/01 02:42:35;;;;;;;32.85;27.93;;;;;;;16.96;99.71;99622.96;1650095;85;21107;-71
2022/10/01 02:45:02;;;;;;;27.02;24.12;;;;;;;16.92;99.46;99628.73;1670300;85;21540;-72
2022/10/01 02:47:48;;;;;;;23.25;20.68;;;;;;;16.86;99.17;99627.98;1670342;85;21338;-70
2022/10/01 02:50:15;;;;;;;35.08;23.27;;;;;;;16.74;99.37;99630.30;1654154;86;21501;-74
2022/10/01 02:52:52;;;;;;;29.57;26.12;;;;;;;16.63;100.00;99628.84;1666474;85;21026;-70
2022/10/01 02:55:23;;;;;;;27.13;23.45;;;;;;;16.60;100.00;99628.59;1656399;86;21665;-71
2022/10/01 02:57:50;;;;;;;25.27;22.65;;;;;;;16.53;100.00;99632.45;1685079;85;21628;-73
2022/10/01 03:00:20;;;;;;;24.35;21.75;;;;;;;16.50;100.00;99630.30;1624021;87;21524;-71
2022/10/01 03:02:47;;;;;;;24.77;22.00;;;;;;;16.45;100.00;99628.22;1660385;85;21142;-71
2022/10/01 03:05:15;;;;;;;25.92;21.52;;;;;;;16.33;100.00;99626.45;1650475;85;21042;-72
2022/10/01 03:07:43;;;;;;;23.27;19.67;;;;;;;16.25;100.00;99619.77;1682843;84;21111;-71
2022/10/01 03:10:10;;;;;;;28.40;20.92;;;;;;;16.27;100.00;99618.09;1652713;85;21095;-72
2022/10/01 03:12:39;;;;;;;21.02;18.07;;;;;;;16.27;100.00;99626.24;1650991;85;21298;-71
2022/10/01 03:15:07;;;;;;;27.75;17.02;;;;;;;16.27;100.00;99614.03;1646503;85;21377;-71
2022/10/01 03:17:36;;;;;;;23.15;20.30;;;;;;;16.27;100.00;99621.63;1648186;86;20981;-71
2022/10/01 03:20:04;;;;;;;26.10;18.32;;;;;;;16.28;100.00;99624.61;1653526;85;20973;-71
2022/10/01 03:22:32;;;;;;;21.17;18.17;;;;;;;16.32;100.00;99626.19;1705939;83;20992;-71
2022/10/01 03:24:59;;;;;;;19.05;16.37;;;;;;;16.32;100.00;99634.33;1672577;85;21127;-69
2022/10/01 03:27:26;;;;;;;17.65;15.55;;;;;;;16.28;100.00;99636.82;1644783;87;21415;-72
2022/10/01 03:29:53;;;;;;;20.60;17.27;;;;;;;16.25;100.00;99632.52;1654509;86;21114;-70
2022/10/01 03:32:19;;;;;;;16.32;14.38;;;;;;;16.19;100.00;99633.13;1666633;85;21131;-69
2022/10/01 03:34:46;;;;;;;17.55;15.60;;;;;;;16.14;100.00;99636.70;1652411;85;20986;-69
2022/10/01 03:37:13;;;;;;;17.60;13.60;;;;;;;16.11;100.00;99637.25;1708240;84;21515;-69
2022/10/01 03:39:40;;;;;;;15.10;12.78;;;;;;;16.09;100.00;99637.30;1704834;84;21311;-69
2022/10/01 03:42:07;;;;;;;16.50;14.30;;;;;;;16.08;100.00;99639.74;1702196;83;21019;-70
2022/10/01 03:44:35;;;;;;;16.75;14.87;;;;;;;16.07;100.00;99640.83;1661843;84;20964;-69
2022/10/01 03:47:02;;;;;;;15.95;13.65;;;;;;;16.05;100.00;99644.39;1701842;84;21537;-69
2022/10/01 03:49:29;;;;;;;17.05;13.90;;;;;;;16.01;100.00;99633.31;1701766;84;21181;-69
2022/10/01 03:51:58;;;;;;;18.87;15.05;;;;;;;15.98;100.00;99630.34;1702449;84;21137;-69
2022/10/01 03:54:44;;;;;;;14.10;12.60;;;;;;;15.92;100.00;99630.94;1706801;84;21036;-69
2022/10/01 03:57:11;;;;;;;14.87;13.03;;;;;;;15.88;100.00;99621.77;1693225;83;20984;-70
2022/10/01 03:59:38;;;;;;;13.13;11.53;;;;;;;15.86;100.00;99615.02;1692991;83;21654;-71
2022/10/01 04:02:07;;;;;;;13.70;10.70;;;;;;;15.86;100.00;99621.80;1656129;85;21014;-70
2022/10/01 04:04:34;;;;;;;14.05;12.65;;;;;;;15.85;100.00;99635.91;1676479;85;21287;-70
2022/10/01 04:07:00;;;;;;;14.03;11.63;;;;;;;15.85;100.00;99637.27;1657828;84;21041;-70
2022/10/01 04:09:30;;;;;;;13.28;11.43;;;;;;;15.87;100.00;99632.92;1668765;84;21357;-71
2022/10/01 04:11:56;;;;;;;11.57;10.40;;;;;;;15.87;100.00;99628.84;1670833;85;20973;-71
2022/10/01 04:14:24;;;;;;;12.70;11.33;;;;;;;15.88;100.00;99635.33;1648596;85;21115;-71
2022/10/01 04:16:51;;;;;;;14.38;11.03;;;;;;;15.87;100.00;99624.23;1659886;84;21403;-71
2022/10/01 04:19:19;;;;;;;16.40;12.35;;;;;;;15.89;100.00;99623.92;1675853;84;21528;-71
2022/10/01 04:21:45;;;;;;;17.57;12.35;;;;;;;15.92;100.00;99629.58;1677180;84;21069;-70
2022/10/01 04:24:13;;;;;;;12.25;10.40;;;;;;;15.95;100.00;99636.36;1705061;83;21516;-71
2022/10/01 04:26:41;;;;;;;19.77;11.90;;;;;;;16.00;100.00;99641.73;1678576;83;21061;-70
2022/10/01 04:29:08;;;;;;;13.70;12.20;;;;;;;16.01;100.00;99640.10;1655936;86;22573;-71
2022/10/01 04:31:35;;;;;;;13.90;11.55;;;;;;;16.04;100.00;99635.45;1711246;82;21043;-71
2022/10/01 04:34:02;;;;;;;16.77;13.48;;;;;;;16.10;100.00;99635.66;1737851;82;21517;-69
2022/10/01 04:36:29;;;;;;;16.87;11.78;;;;;;;16.13;100.00;99645.12;1724346;82;21032;-69
2022/10/01 04:38:56;;;;;;;11.75;10.50;;;;;;;16.13;100.00;99646.48;1706853;82;21084;-69
2022/10/01 04:41:24;;;;;;;15.15;12.07;;;;;;;16.10;100.00;99648.42;1708267;82;21569;-69
2022/10/01 04:43:51;;;;;;;11.12;10.00;;;;;;;16.09;100.00;99652.22;1718555;82;21552;-69
2022/10/01 04:46:18;;;;;;;16.17;10.78;;;;;;;16.08;100.00;99650.59;1726032;82;21037;-69
2022/10/01 04:48:48;;;;;;;9.85;8.80;;;;;;;16.07;99.91;99647.61;1706646;83;20993;-68
2022/10/01 04:51:16;;;;;;;16.12;10.78;;;;;;;16.02;99.79;99653.91;1706432;83;21063;-70
2022/10/01 04:53:44;;;;;;;12.53;10.60;;;;;;;16.00;99.87;99662.08;1679155;84;21246;-72
2022/10/01 04:56:10;;;;;;;11.75;10.55;;;;;;;15.97;99.97;99661.30;1657651;85;21040;-70
2022/10/01 04:58:38;;;;;;;11.08;9.98;;;;;;;15.95;100.00;99657.52;1700180;83;20995;-70
2022/10/01 05:01:04;;;;;;;11.18;8.88;;;;;;;15.92;100.00;99647.21;1700306;84;21124;-70
2022/10/01 05:03:31;;;;;;;9.63;8.70;;;;;;;15.92;100.00;99652.64;1725862;83;21512;-71
2022/10/01 05:05:58;;;;;;;15.85;9.78;;;;;;;15.93;100.00;99656.16;1724157;83;21067;-70
2022/10/01 05:08:24;;;;;;;11.97;10.80;;;;;;;15.94;100.00;99653.17;1700525;84;20955;-71
2022/10/01 05:10:52;;;;;;;15.32;12.55;;;;;;;15.98;100.00;99664.25;1698887;84;21233;-69
2022/10/01 05:13:18;;;;;;;11.33;10.10;;;;;;;16.01;99.99;99660.99;1722783;83;21519;-70
2022/10/01 05:15:49;;;;;;;12.00;10.70;;;;;;;16.02;99.80;99663.94;1726866;83;21516;-71
2022/10/01 05:18:16;;;;;;;11.57;10.30;;;;;;;16.02;99.55;99666.66;1698399;84;21151;-72
2022/10/01 05:20:44;;;;;;;11.63;10.58;;;;;;;16.02;99.46;99672.08;1698352;84;20983;-72
2022/10/01 05:23:10;;;;;;;10.00;8.73;;;;;;;16.01;99.37;99674.01;1718164;83;21050;-68
2022/10/01 05:25:36;;;;;;;10.18;9.23;;;;;;;16.03;99.38;99677.77;1729326;83;21036;-69
2022/10/01 05:28:04;;;;;;;11.93;9.73;;;;;;;16.04;99.29;99670.72;1699513;83;21095;-72
2022/10/01 05:30:31;;;;;;;11.48;9.28;;;;;;;16.07;99.18;99680.17;1699938;84;21573;-71
2022/10/01 05:33:02;;;;;;;10.53;9.35;;;;;;;16.11;99.05;99682.02;1699551;84;21289;-71
2022/10/01 05:35:29;;;;;;;12.58;10.98;;;;;;;16.15;98.97;99671.43;1700138;84;20951;-72
2022/10/01 05:38:00;;;;;;;11.40;9.88;;;;;;;16.19;98.69;99666.23;1699132;84;21051;-70
2022/10/01 05:40:27;;;;;;;13.50;9.75;;;;;;;16.18;98.31;99664.06;1700057;84;21027;-72
2022/10/01 05:42:55;;;;;;;10.68;8.95;;;;;;;16.19;98.27;99668.95;1710913;83;21045;-73
2022/10/01 05:45:22;;;;;;;10.90;9.28;;;;;;;16.20;98.23;99674.64;1698272;84;20984;-69
2022/10/01 05:48:02;;;;;;;12.80;9.48;;;;;;;16.20;98.24;99680.06;1699677;84;21094;-72
2022/10/01 05:50:30;;;;;;;10.85;9.40;;;;;;;16.22;98.29;99684.09;1701658;83;21110;-74
2022/10/01 05:52:57;;;;;;;10.88;9.23;;;;;;;16.27;98.34;99679.16;1686345;83;21771;-69
2022/10/01 05:55:23;;;;;;;10.23;8.55;;;;;;;16.33;98.23;99679.38;1717078;83;21561;-71
2022/10/01 05:57:59;;;;;;;19.12;8.70;;;;;;;16.37;97.88;99679.06;1711159;83;21031;-71
2022/10/01 06:00:31;;;;;;;11.88;9.93;;;;;;;16.41;97.62;99682.27;1713169;83;21036;-70
2022/10/01 06:02:58;;;;;;;11.65;8.10;;;;;;;16.44;97.31;99684.42;1725581;82;20945;-72
2022/10/01 06:05:25;;;;;;;17.17;12.20;;;;;;;16.47;97.17;99683.02;1705714;83;21544;-71
2022/10/01 06:07:52;;;;;;;9.93;8.88;;;;;;;16.50;96.87;99679.72;1708199;83;21096;-70
2022/10/01 06:10:19;;;;;;;10.23;9.10;;;;;;;16.54;96.72;99661.78;1708699;83;21012;-70
2022/10/01 06:12:47;;;;;;;8.15;7.35;;;;;;;16.60;96.60;99664.70;1701210;83;21048;-71
2022/10/01 06:15:15;;;;;;;10.08;7.45;;;;;;;16.67;96.31;99665.72;1705074;84;21005;-72
2022/10/01 06:17:45;;;;;;;13.25;8.88;;;;;;;16.73;95.82;99664.02;1708356;84;21107;-72
2022/10/01 06:20:15;;;;;;;8.70;7.80;;;;;;;16.80;95.56;99667.72;1709487;84;21755;-70
2022/10/01 06:22:42;;;;;;;10.63;7.90;;;;;;;16.86;94.82;99677.43;1709406;83;21494;-72
2022/10/01 06:25:11;;;;;;;13.38;7.45;;;;;;;16.89;94.49;99676.29;1707951;83;21509;-72
2022/10/01 06:27:38;;;;;;;8.83;7.58;;;;;;;16.93;94.03;99677.32;1715127;83;20976;-71
2022/10/01 06:30:08;;;;;;;8.40;7.58;;;;;;;16.98;93.83;99669.10;1727134;82;21095;-72
2022/10/01 06:32:36;;;;;;;7.62;6.90;;;;;;;17.06;93.31;99677.72;1722182;82;20980;-71
2022/10/01 06:35:03;;;;;;;8.65;7.78;;;;;;;17.12;92.84;99676.55;1708680;83;21491;-72
2022/10/01 06:37:29;;;;;;;8.05;7.25;;;;;;;17.17;92.10;99677.84;1687624;84;21024;-72
2022/10/01 06:39:56;;;;;;;7.22;6.53;;;;;;;17.20;91.64;99687.56;1707982;84;21061;-73
2022/10/01 06:42:22;;;;;;;9.30;7.15;;;;;;;17.24;91.17;99681.80;1706694;83;21104;-72
2022/10/01 06:44:49;;;;;;;6.97;6.22;;;;;;;17.26;90.98;99693.75;1708656;84;21716;-71
2022/10/01 06:47:17;;;;;;;8.08;6.15;;;;;;;17.29;90.58;99714.90;1706793;84;21619;-70
2022/10/01 06:49:44;;;;;;;6.65;6.05;;;;;;;17.33;90.06;99704.50;1708016;84;21006;-69
2022/10/01 06:54:58;;;;;;;8.53;7.03;;;;;;;17.49;89.73;99697.48;1728731;82;21075;-68
2022/10/01 06:57:25;;;;;;;7.17;6.53;;;;;;;17.56;89.16;99697.36;1708312;82;21126;-69
2022/10/01 06:59:52;;;;;;;7.17;5.67;;;;;;;17.61;88.77;99695.95;1713117;83;21127;-69
2022/10/01 07:02:27;;;;;;;7.80;6.55;;;;;;;17.66;87.94;99700.50;1731270;81;21003;-68
2022/10/01 07:04:57;;;;;;;9.55;5.35;;;;;;;17.71;87.65;99717.55;1712790;83;21041;-69
2022/10/01 07:07:34;;;;;;;8.58;5.22;;;;;;;17.77;85.87;99695.97;1713637;83;21582;-72
2022/10/01 07:10:01;;;;;;;4.92;4.53;;;;;;;17.83;84.79;99693.98;1714756;83;21065;-70
2022/10/01 07:12:28;;;;;;;8.40;5.50;;;;;;;17.88;84.58;99695.26;1728753;82;21028;-70
2022/10/01 07:14:55;;;;;;;5.42;4.92;;;;;;;17.96;84.14;99695.12;1713793;82;21637;-71
2022/10/01 07:17:23;;;;;;;9.28;4.25;;;;;;;18.01;83.64;99697.20;1693567;83;22126;-74
2022/10/01 07:19:52;;;;;;;5.20;4.67;;;;;;;18.08;83.28;99697.61;1707077;83;21096;-72
2022/10/01 07:22:18;;;;;;;6.30;4.45;;;;;;;18.15;83.04;99688.52;1698092;83;21208;-71
2022/10/01 07:24:46;;;;;;;8.53;5.55;;;;;;;18.24;82.50;99679.91;1698374;83;21088;-72
2022/10/01 07:27:13;;;;;;;4.95;4.47;;;;;;;18.37;81.98;99682.97;1702865;83;21047;-72
2022/10/01 07:29:40;;;;;;;4.92;4.37;;;;;;;18.47;80.93;99684.91;1709977;83;21028;-72
2022/10/01 07:32:09;;;;;;;5.42;3.70;;;;;;;18.57;79.82;99690.75;1683944;83;21552;-72
2022/10/01 07:34:39;;;;;;;6.55;3.22;;;;;;;18.65;77.49;99691.43;1727842;82;21126;-70
2022/10/01 07:37:06;;;;;;;4.67;3.30;;;;;;;18.72;77.21;99687.17;1710436;83;21030;-70
2022/10/01 07:39:32;;;;;;;4.75;3.77;;;;;;;18.78;75.58;99702.06;1708063;82;21051;-71
2022/10/01 07:42:01;;;;;;;3.22;3.00;;;;;;;18.83;75.19;99699.23;1713114;82;21013;-72
2022/10/01 07:44:28;;;;;;;4.45;3.72;;;;;;;18.87;73.80;99710.59;1680533;84;21515;-70
2022/10/01 07:46:55;;;;;;;4.78;4.20;;;;;;;18.92;73.63;99705.03;1713852;83;21604;-72
2022/10/01 07:49:25;;;;;;;3.55;3.25;;;;;;;18.95;73.35;99690.78;1707562;83;21050;-69
2022/10/01 07:51:53;;;;;;;3.33;2.75;;;;;;;19.02;73.20;99690.38;1702951;83;21547;-70
2022/10/01 07:54:22;;;;;;;2.77;2.58;;;;;;;19.05;72.07;99689.20;1705466;83;21060;-69
2022/10/01 07:56:54;;;;;;;3.62;3.33;;;;;;;19.08;71.00;99690.53;1735665;82;21596;-69
2022/10/01 07:59:22;;;;;;;3.20;2.90;;;;;;;19.13;71.34;99692.59;1711433;83;21107;-69
2022/10/01 08:01:52;;;;;;;3.00;2.80;;;;;;;19.19;70.77;99687.81;1707810;83;20929;-70
2022/10/01 08:07:07;;;;;;;3.47;3.17;;;;;;;19.31;70.54;99679.11;1724790;81;21564;-70
2022/10/01 08:09:34;;;;;;;4.05;3.02;;;;;;;19.34;70.15;99688.03;1701426;83;21107;-69
2022/10/01 08:12:01;;;;;;;4.50;2.77;;;;;;;19.38;69.74;99682.20;1707934;83;21251;-68
2022/10/01 08:14:30;;;;;;;3.30;3.00;;;;;;;19.40;69.53;99672.61;1734774;82;21741;-71
2022/10/01 08:16:57;;;;;;;3.50;3.20;;;;;;;19.44;69.54;99670.09;1711794;82;21109;-71
2022/10/01 08:19:24;;;;;;;3.92;3.00;;;;;;;19.47;69.14;99664.05;1705303;83;20980;-72
2022/10/01 08:21:51;;;;;;;4.40;3.15;;;;;;;19.51;68.78;99671.30;1707907;84;21045;-69
2022/10/01 08:24:19;;;;;;;4.15;2.77;;;;;;;19.56;68.74;99662.19;1707760;84;21138;-70
2022/10/01 08:26:54;;;;;;;4.50;3.08;;;;;;;19.63;68.21;99667.19;1707827;84;21168;-72
2022/10/01 08:29:28;;;;;;;8.13;2.92;;;;;;;19.68;68.15;99677.98;1706488;83;21044;-69
2022/10/01 08:31:57;;;;;;;2.50;2.30;;;;;;;19.77;68.00;99661.11;1709101;83;21639;-69
2022/10/01 08:34:24;;;;;;;3.55;2.80;;;;;;;19.77;68.00;99661.11;1705994;83;21103;-75
2022/10/01 08:36:50;;;;;;;4.12;2.40;;;;;;;19.80;68.09;99646.86;1688582;83;21151;-74
2022/10/01 08:39:17;;;;;;;2.60;2.40;;;;;;;19.88;68.45;99651.55;1708951;83;20980;-72
2022/10/01 08:42:14;;;;;;;4.62;2.60;;;;;;;19.96;67.85;99658.42;1707494;82;20970;-74
2022/10/01 08:44:50;;;;;;;3.27;2.98;;;;;;;20.02;67.54;99652.28;1666444;85;21530;-72
2022/10/01 08:48:03;;;;;;;2.55;2.35;;;;;;;20.09;67.14;99653.20;1625726;87;21095;-71
2022/10/01 08:50:45;;;;;;;2.58;2.37;;;;;;;20.12;66.46;99665.67;1655873;85;21138;-70
2022/10/01 08:53:18;;;;;;;2.95;2.22;;;;;;;20.11;65.71;99661.32;1694482;83;20957;-69
2022/10/01 08:55:46;;;;;;;2.92;2.40;;;;;;;20.08;65.96;99674.80;1707090;83;20984;-71
2022/10/01 08:58:24;;;;;;;2.42;2.22;;;;;;;20.10;66.11;99669.81;1705778;83;21134;-69
2022/10/01 09:00:51;;;;;;;3.12;2.90;;;;;;;20.11;66.32;99670.06;1704945;83;21032;-68
2022/10/01 09:03:21;;;;;;;4.67;2.77;;;;;;;20.16;66.45;99671.30;1704861;83;21102;-69
2022/10/01 09:06:29;;;;;;;2.25;2.08;;;;;;;20.19;66.01;99666.59;1706580;84;21036;-68
2022/10/01 09:09:23;;;;;;;2.27;2.12;;;;;;;20.18;66.07;99676.71;1706319;83;21028;-68
2022/10/01 09:12:16;;;;;;;3.67;2.08;;;;;;;20.23;65.23;99668.39;1697781;83;20980;-70
2022/10/01 09:15:07;;;;;;;2.27;2.08;;;;;;;20.25;64.17;99668.05;1707384;82;21085;-69
2022/10/01 09:17:42;;;;;;;3.20;2.40;;;;;;;20.27;63.58;99672.09;1705334;84;21159;-68
2022/10/01 09:20:23;;;;;;;7.12;2.98;;;;;;;20.29;63.79;99675.86;1702038;83;21014;-68
2022/10/01 09:23:19;;;;;;;1.70;1.60;;;;;;;20.30;63.54;99682.41;1702569;82;21044;-69
2022/10/01 09:25:49;;;;;;;5.15;2.10;;;;;;;20.30;62.70;99689.77;1734128;82;21533;-68
2022/10/01 09:28:24;;;;;;;1.40;1.30;;;;;;;20.29;62.94;99673.94;1736010;82;21122;-67
2022/10/01 09:31:26;;;;;;;9.13;1.82;;;;;;;20.29;63.36;99669.03;1720867;82;22030;-69
2022/10/01 09:34:12;;;;;;;3.30;1.90;;;;;;;20.30;63.38;99678.31;1705476;82;21028;-71
2022/10/01 09:36:45;;;;;;;2.15;1.72;;;;;;;20.31;63.68;99691.42;1706807;84;21060;-69
2022/10/01 09:39:20;;;;;;;1.80;1.50;;;;;;;20.34;62.89;99692.95;1707567;84;21052;-69
2022/10/01 09:41:48;;;;;;;1.30;1.20;;;;;;;20.36;62.13;99700.84;1705740;83;21537;-69
2022/10/01 09:44:18;;;;;;;3.27;1.47;;;;;;;20.36;61.58;99688.55;1706703;84;21357;-67
2022/10/01 09:46:46;;;;;;;1.40;1.30;;;;;;;20.38;61.71;99687.69;1706345;84;21094;-70
2022/10/01 09:49:21;;;;;;;3.42;1.55;;;;;;;20.40;61.37;99680.77;1706683;83;21532;-69
2022/10/01 09:51:52;;;;;;;1.50;1.40;;;;;;;20.41;61.26;99687.86;1704900;83;21061;-67
2022/10/01 09:54:51;;;;;;;3.08;1.57;;;;;;;20.43;61.07;99693.02;1680450;82;21164;-69
2022/10/01 09:57:34;;;;;;;1.50;1.40;;;;;;;20.43;61.00;99687.55;1690417;84;21264;-70
2022/10/01 10:00:09;;;;;;;1.47;1.37;;;;;;;20.47;61.26;99684.43;1708104;82;21012;-68
2022/10/01 10:02:48;;;;;;;1.87;1.00;;;;;;;20.51;59.96;99680.50;1727334;82;20980;-69
2022/10/01 10:05:28;;;;;;;6.17;1.60;;;;;;;20.54;60.09;99675.75;1709207;82;21060;-69
2022/10/01 10:08:00;;;;;;;1.40;1.30;;;;;;;20.62;59.47;99679.10;1704149;82;21176;-69
2022/10/01 10:10:34;;;;;;;1.57;1.47;;;;;;;20.63;58.04;99680.13;1736579;80;21117;-67
2022/10/01 10:13:33;;;;;;;1.52;1.37;;;;;;;20.62;58.19;99667.61;1713701;82;21643;-70
2022/10/01 10:16:09;;;;;;;1.52;1.40;;;;;;;20.68;58.81;99676.45;1714810;83;20956;-68
2022/10/01 10:18:38;;;;;;;2.45;1.22;;;;;;;20.77;59.02;99665.78;1712951;82;21047;-67
2022/10/01 10:21:15;;;;;;;7.87;1.67;;;;;;;20.83;58.85;99667.25;1702284;83;21138;-68
2022/10/01 10:23:52;;;;;;;3.08;1.30;;;;;;;20.93;58.80;99667.52;1686016;83;21943;-69
2022/10/01 10:26:27;;;;;;;1.65;1.50;;;;;;;21.00;57.87;99697.95;1734661;82;21167;-68
2022/10/01 10:28:55;;;;;;;1.30;1.20;;;;;;;21.02;57.01;99683.94;1715564;82;21617;-69
2022/10/01 10:31:27;;;;;;;3.52;1.17;;;;;;;21.01;57.03;99678.22;1727773;81;21032;-68
2022/10/01 10:34:07;;;;;;;1.50;1.40;;;;;;;21.05;57.19;99671.81;1713049;83;21903;-69
2022/10/01 10:36:35;;;;;;;2.80;1.07;;;;;;;21.09;57.01;99699.33;1700820;82;21592;-68
2022/10/01 10:39:07;;;;;;;2.33;1.30;;;;;;;21.07;56.89;99682.41;1730884;82;21546;-68
2022/10/01 10:41:33;;;;;;;1.32;1.22;;;;;;;21.10;57.26;99679.84;1706053;83;21050;-67
2022/10/01 10:44:05;;;;;;;1.47;1.37;;;;;;;21.15;56.96;99684.41;1685634;84;21027;-68
2022/10/01 10:46:34;;;;;;;1.30;1.20;;;;;;;21.21;57.24;99669.44;1685899;83;21071;-71
2022/10/01 10:49:20;;;;;;;1.55;1.45;;;;;;;21.25;57.04;99676.67;1686221;85;21246;-68
2022/10/01 10:51:52;;;;;;;3.08;1.50;;;;;;;21.28;56.86;99656.91;1703008;83;20957;-70
2022/10/01 10:54:23;;;;;;;2.20;2.00;;;;;;;21.28;57.15;99650.06;1713208;83;20983;-68
2022/10/01 10:57:01;;;;;;;1.95;1.70;;;;;;;21.29;57.43;99661.81;1713288;83;20921;-69
2022/10/01 10:59:32;;;;;;;4.85;1.60;;;;;;;21.29;57.23;99658.48;1711801;82;21501;-70
2022/10/01 11:02:01;;;;;;;3.98;1.70;;;;;;;21.28;57.18;99667.04;1707574;83;21130;-69
2022/10/01 11:04:41;;;;;;;1.55;1.45;;;;;;;21.25;57.55;99645.22;1707823;84;20957;-69
2022/10/01 11:07:08;;;;;;;3.08;1.50;;;;;;;21.27;57.48;99653.11;1707769;84;21084;-68
2022/10/01 11:09:49;;;;;;;2.50;1.85;;;;;;;21.25;56.98;99660.83;1707770;84;20996;-69
2022/10/01 11:12:28;;;;;;;1.90;1.50;;;;;;;21.22;57.27;99653.27;1706362;83;21053;-68
2022/10/01 11:15:02;;;;;;;1.47;1.37;;;;;;;21.20;57.34;99645.38;1708356;83;21116;-70
2022/10/01 11:17:44;;;;;;;2.05;1.55;;;;;;;21.20;57.55;99652.77;1707878;83;21047;-69
2022/10/01 11:20:19;;;;;;;2.22;1.98;;;;;;;21.19;57.53;99638.31;1707457;83;21020;-69
2022/10/01 11:22:57;;;;;;;2.55;1.62;;;;;;;21.17;57.81;99641.11;1705407;83;21052;-70
2022/10/01 11:25:53;;;;;;;5.37;1.60;;;;;;;21.16;57.79;99660.02;1705839;83;21076;-69
2022/10/01 11:28:38;;;;;;;1.65;1.55;;;;;;;21.15;57.77;99645.53;1701865;83;21354;-69
2022/10/01 11:31:28;;;;;;;1.47;1.37;;;;;;;21.16;58.06;99638.13;1707250;83;21044;-70
2022/10/01 11:34:15;;;;;;;1.77;1.67;;;;;;;21.16;58.23;99634.84;1707803;84;21064;-69
2022/10/01 11:36:51;;;;;;;2.00;1.62;;;;;;;21.17;58.40;99626.07;1707536;83;21045;-68
2022/10/01 11:39:19;;;;;;;2.27;1.90;;;;;;;21.17;58.23;99627.44;1708479;83;21040;-67
2022/10/01 11:42:09;;;;;;;3.75;1.47;;;;;;;21.16;58.32;99628.55;1709428;83;21237;-68
2022/10/01 11:44:52;;;;;;;4.28;1.72;;;;;;;21.14;58.63;99622.06;1707952;83;21028;-68
2022/10/01 11:47:24;;;;;;;2.58;1.50;;;;;;;21.12;58.72;99623.46;1708781;83;21103;-68
2022/10/01 11:50:07;;;;;;;9.70;2.50;;;;;;;21.09;58.58;99639.16;1685815;83;21520;-68